Time;durP1;ratioP1;P1;durP2;ratioP2;P2;SDS_P1;SDS_P2;PMS_P1;PMS_P2;Temp;Humidity;BMP_temperature;BMP_pressure;BME280_temperature;BME280_humidity;BME280_pressure;Samples;Min_cycle;Max_cycle;Signal;HPM_P1;HPM_P2
2023/10/16 00:00:32;;;;;;;11.40;3.20;;;8.50;99.90;;;;;;5050672;28;20370;-74
2023/10/16 00:03:02;;;;;;;10.25;3.30;;;8.50;99.90;;;;;;5052074;28;20047;-74
2023/10/16 00:05:33;;;;;;;8.35;2.92;;;8.50;99.90;;;;;;5048896;28;20036;-74
2023/10/16 00:08:08;;;;;;;11.23;3.05;;;8.50;99.90;;;;;;5037917;28;20029;-74
2023/10/16 00:10:35;;;;;;;7.40;2.85;;;8.60;99.90;;;;;;5052558;28;20025;-74
2023/10/16 00:13:05;;;;;;;8.38;2.90;;;8.60;99.90;;;;;;5052329;28;20021;-74
2023/10/16 00:15:40;;;;;;;8.50;2.92;;;8.70;99.90;;;;;;5051895;28;20104;-74
2023/10/16 00:18:16;;;;;;;6.27;2.63;;;8.70;99.90;;;;;;5051633;28;20028;-74
2023/10/16 00:20:42;;;;;;;12.10;3.30;;;8.80;99.90;;;;;;5051817;28;20397;-74
2023/10/16 00:23:12;;;;;;;10.18;3.30;;;8.80;99.90;;;;;;5045256;28;20025;-74
2023/10/16 00:25:38;;;;;;;8.68;2.88;;;8.90;99.90;;;;;;5045818;28;20385;-75
2023/10/16 00:28:08;;;;;;;6.72;2.72;;;8.90;99.90;;;;;;5051415;28;20074;-74
2023/10/16 00:30:35;;;;;;;10.77;2.90;;;8.90;99.90;;;;;;5051389;28;20025;-74
2023/10/16 00:33:00;;;;;;;8.48;3.17;;;9.00;99.90;;;;;;5051434;28;20032;-75
2023/10/16 00:35:26;;;;;;;8.13;2.80;;;9.00;99.90;;;;;;5051170;28;20021;-74
2023/10/16 00:37:52;;;;;;;6.93;2.85;;;9.00;99.90;;;;;;5049667;28;20432;-74
2023/10/16 00:40:38;;;;;;;8.73;2.75;;;9.00;99.90;;;;;;5049704;28;20040;-74
2023/10/16 00:43:17;;;;;;;7.72;3.20;;;9.10;99.90;;;;;;5049004;28;20041;-74
2023/10/16 00:45:50;;;;;;;8.20;2.95;;;9.10;99.90;;;;;;5040952;28;20032;-74
2023/10/16 00:48:17;;;;;;;6.60;2.67;;;9.10;99.90;;;;;;5042511;28;20020;-74
2023/10/16 00:50:49;;;;;;;5.57;2.97;;;9.10;99.90;;;;;;5050781;28;20409;-74
2023/10/16 00:53:22;;;;;;;7.50;2.70;;;9.10;99.90;;;;;;5050798;28;20066;-74
2023/10/16 00:55:49;;;;;;;6.57;2.78;;;9.10;99.90;;;;;;5044642;28;20144;-74
2023/10/16 00:58:15;;;;;;;8.95;2.80;;;9.10;99.90;;;;;;5050553;28;20028;-74
2023/10/16 01:00:46;;;;;;;6.75;2.85;;;9.00;99.90;;;;;;5050646;28;20029;-74
2023/10/16 01:03:13;;;;;;;6.80;2.60;;;9.00;99.90;;;;;;5050622;28;20359;-74
2023/10/16 01:05:42;;;;;;;4.68;2.58;;;9.00;99.90;;;;;;5050741;28;20024;-74
2023/10/16 01:08:09;;;;;;;8.68;2.80;;;8.90;99.90;;;;;;5050504;28;20040;-74
2023/10/16 01:10:37;;;;;;;6.28;2.60;;;8.90;99.90;;;;;;5051130;28;20397;-74
2023/10/16 01:13:08;;;;;;;7.13;2.70;;;8.90;99.90;;;;;;5048974;28;20025;-75
2023/10/16 01:15:34;;;;;;;6.88;2.88;;;8.90;99.90;;;;;;5050721;28;20033;-74
2023/10/16 01:18:00;;;;;;;5.80;2.80;;;8.80;99.90;;;;;;5050443;28;20055;-74
2023/10/16 01:20:25;;;;;;;8.15;2.85;;;8.80;99.90;;;;;;5049015;28;20024;-74
2023/10/16 01:22:52;;;;;;;6.80;2.47;;;8.70;99.90;;;;;;5037258;28;20021;-74
2023/10/16 01:25:18;;;;;;;6.28;2.90;;;8.70;99.90;;;;;;5046256;28;20154;-74
2023/10/16 01:27:44;;;;;;;5.53;2.58;;;8.60;99.90;;;;;;5050371;28;20104;-74
2023/10/16 01:30:10;;;;;;;7.35;2.80;;;8.60;99.90;;;;;;5042062;28;20021;-74
2023/10/16 01:32:39;;;;;;;5.40;2.70;;;8.60;99.90;;;;;;5050308;28;20025;-74
2023/10/16 01:35:08;;;;;;;6.25;2.20;;;8.50;99.90;;;;;;5042349;28;20030;-74
2023/10/16 01:37:41;;;;;;;6.25;2.67;;;8.50;99.90;;;;;;5048124;28;20033;-74
2023/10/16 01:42:42;;;;;;;;;;;8.40;99.90;;;;;;5050300;28;20033;-74
2023/10/16 01:45:08;;;;;;;7.32;2.72;;;8.40;99.90;;;;;;5050019;28;19912;-74
2023/10/16 01:47:34;;;;;;;9.75;2.55;;;8.40;99.90;;;;;;5033751;28;20093;-74
2023/10/16 01:50:01;;;;;;;6.53;2.45;;;8.40;99.90;;;;;;5042203;28;20096;-74
2023/10/16 01:52:27;;;;;;;6.22;2.35;;;8.40;99.90;;;;;;5049388;28;20040;-74
2023/10/16 01:54:53;;;;;;;6.20;2.60;;;8.40;99.90;;;;;;5040812;28;20398;-74
2023/10/16 01:57:21;;;;;;;6.13;2.25;;;8.40;99.90;;;;;;5049739;28;20009;-74
2023/10/16 01:59:51;;;;;;;9.93;2.55;;;8.40;99.90;;;;;;5049363;28;20108;-74
2023/10/16 02:02:17;;;;;;;6.93;2.60;;;8.40;99.90;;;;;;5043130;28;20091;-74
2023/10/16 02:04:44;;;;;;;6.13;2.40;;;8.40;99.90;;;;;;5047539;28;20539;-74
2023/10/16 02:07:11;;;;;;;7.85;2.33;;;8.40;99.90;;;;;;5049915;28;20075;-74
2023/10/16 02:09:38;;;;;;;7.97;2.45;;;8.40;99.90;;;;;;5049797;28;20033;-74
2023/10/16 02:12:10;;;;;;;10.70;2.35;;;8.30;99.90;;;;;;5048106;28;20017;-74
2023/10/16 02:14:41;;;;;;;8.43;2.08;;;8.30;99.90;;;;;;5042182;28;20032;-74
2023/10/16 02:17:21;;;;;;;12.02;2.45;;;8.30;99.90;;;;;;5047082;28;20074;-74
2023/10/16 02:19:47;;;;;;;7.63;2.47;;;8.30;99.90;;;;;;5053430;28;20084;-74
2023/10/16 02:22:16;;;;;;;6.95;2.42;;;8.30;99.90;;;;;;5053531;28;20017;-74
2023/10/16 02:24:41;;;;;;;6.10;2.40;;;8.30;99.90;;;;;;5054532;28;20416;-74
2023/10/16 02:27:14;;;;;;;6.82;2.08;;;8.30;99.90;;;;;;5054141;28;20032;-74
2023/10/16 02:29:45;;;;;;;8.90;2.30;;;8.30;99.90;;;;;;5047892;28;20029;-74
2023/10/16 02:32:12;;;;;;;7.95;2.10;;;8.30;99.90;;;;;;5041825;28;20055;-74
2023/10/16 02:34:38;;;;;;;11.70;2.42;;;8.30;99.90;;;;;;5053791;28;20052;-74
2023/10/16 02:37:06;;;;;;;6.32;2.30;;;8.30;99.90;;;;;;5044211;28;20029;-74
2023/10/16 02:39:41;;;;;;;6.40;2.42;;;8.30;99.90;;;;;;5052243;28;20037;-74
2023/10/16 02:42:12;;;;;;;6.95;2.10;;;8.30;99.90;;;;;;5046970;28;20025;-74
2023/10/16 02:44:45;;;;;;;11.85;2.42;;;8.30;99.90;;;;;;5048595;28;20057;-74
2023/10/16 02:47:26;;;;;;;8.25;2.47;;;8.30;99.90;;;;;;5048411;28;20040;-74
2023/10/16 02:49:53;;;;;;;13.10;3.20;;;8.30;99.90;;;;;;5053413;28;20029;-74
2023/10/16 02:52:19;;;;;;;9.90;2.55;;;8.30;99.90;;;;;;5053196;28;20041;-74
2023/10/16 02:54:47;;;;;;;7.07;2.38;;;8.20;99.90;;;;;;5053699;28;20044;-74
2023/10/16 02:57:14;;;;;;;5.05;2.20;;;8.20;99.90;;;;;;5053092;28;20127;-74
2023/10/16 02:59:43;;;;;;;11.93;2.55;;;8.20;99.90;;;;;;5053013;28;20465;-74
2023/10/16 03:02:13;;;;;;;8.30;2.63;;;8.20;99.90;;;;;;5051181;28;20024;-74
2023/10/16 03:04:40;;;;;;;8.65;2.50;;;8.20;99.90;;;;;;5052310;28;20067;-74
2023/10/16 03:07:07;;;;;;;5.40;2.38;;;8.30;99.90;;;;;;5053184;28;20021;-74
2023/10/16 03:09:32;;;;;;;10.35;2.55;;;8.20;99.90;;;;;;5039781;28;20024;-74
2023/10/16 03:12:04;;;;;;;7.63;2.45;;;8.30;99.90;;;;;;5052556;28;20104;-74
2023/10/16 03:14:44;;;;;;;10.82;2.35;;;8.30;99.90;;;;;;5052556;28;20029;-74
2023/10/16 03:17:17;;;;;;;6.80;2.40;;;8.30;99.90;;;;;;5043103;28;20021;-74
2023/10/16 03:19:43;;;;;;;7.20;2.30;;;8.30;99.90;;;;;;5049918;28;20675;-74
2023/10/16 03:22:12;;;;;;;6.78;2.25;;;8.30;99.90;;;;;;5052479;28;20025;-74
2023/10/16 03:24:38;;;;;;;7.60;2.40;;;8.30;99.90;;;;;;5052143;28;20028;-74
2023/10/16 03:27:08;;;;;;;5.50;2.20;;;8.30;99.90;;;;;;5052546;28;20088;-74
2023/10/16 03:29:34;;;;;;;7.38;2.10;;;8.30;99.90;;;;;;5051155;28;20075;-74
2023/10/16 03:32:00;;;;;;;8.52;2.33;;;8.30;99.90;;;;;;5052188;28;20017;-74
2023/10/16 03:34:25;;;;;;;7.38;2.35;;;8.30;99.90;;;;;;5052383;28;20028;-74
2023/10/16 03:36:55;;;;;;;5.97;1.98;;;8.30;99.90;;;;;;5051152;28;20017;-74
2023/10/16 03:39:22;;;;;;;9.95;2.17;;;8.30;99.90;;;;;;5052532;28;20025;-74
2023/10/16 03:41:49;;;;;;;4.60;2.20;;;8.30;99.90;;;;;;5052002;28;20027;-74
2023/10/16 03:44:17;;;;;;;8.00;2.28;;;8.30;99.90;;;;;;5052441;28;20070;-74
2023/10/16 03:46:44;;;;;;;4.93;2.20;;;8.40;99.90;;;;;;5049915;28;20013;-74
2023/10/16 03:49:11;;;;;;;5.20;2.00;;;8.40;99.90;;;;;;5037716;28;20523;-74
2023/10/16 03:51:38;;;;;;;6.47;1.85;;;8.40;99.90;;;;;;5051789;28;20275;-74
2023/10/16 03:54:03;;;;;;;6.35;2.08;;;8.40;99.90;;;;;;5050531;28;20465;-74
2023/10/16 03:56:32;;;;;;;6.88;1.80;;;8.40;99.90;;;;;;5052101;28;20017;-74
2023/10/16 03:58:58;;;;;;;5.90;2.10;;;8.50;99.90;;;;;;5051829;28;20121;-74
2023/10/16 04:01:27;;;;;;;5.85;2.08;;;8.50;99.90;;;;;;5052014;28;20099;-74
2023/10/16 04:03:56;;;;;;;4.70;1.83;;;8.50;99.90;;;;;;5052161;28;20021;-74
2023/10/16 04:06:23;;;;;;;9.77;2.20;;;8.50;99.90;;;;;;5051551;28;20454;-74
2023/10/16 04:08:51;;;;;;;3.95;1.98;;;8.50;99.90;;;;;;5051809;28;20461;-74
2023/10/16 04:11:19;;;;;;;3.72;2.20;;;8.50;99.90;;;;;;5051869;28;20452;-74
2023/10/16 04:13:49;;;;;;;7.15;2.17;;;8.50;99.90;;;;;;5051926;28;20017;-74
2023/10/16 04:16:30;;;;;;;3.92;1.88;;;8.60;99.90;;;;;;5051254;28;20104;-74
2023/10/16 04:19:07;;;;;;;5.72;2.00;;;8.50;99.90;;;;;;5051572;28;20520;-74
2023/10/16 04:27:33;;;;;;;6.13;1.88;;;8.60;99.90;;;;;;5051652;28;20029;-74
2023/10/16 04:29:46;;;;;;;7.38;2.10;;;8.60;99.90;;;;;;5036228;28;20037;-74
2023/10/16 04:35:02;;;;;;;5.10;2.07;;;8.50;99.90;;;;;;5045840;28;20398;-74
2023/10/16 04:37:40;;;;;;;4.93;1.92;;;8.50;99.90;;;;;;5052233;28;20033;-74
2023/10/16 04:50:15;;;;;;;4.55;2.03;;;8.40;99.90;;;;;;5050894;28;20025;-75
2023/10/16 04:53:25;;;;;;;4.90;2.33;;;8.40;99.90;;;;;;5040404;28;20053;-74
2023/10/16 05:00:57;;;;;;;5.68;2.35;;;8.40;99.90;;;;;;5046267;28;20029;-74
2023/10/16 05:04:24;;;;;;;6.53;2.45;;;8.50;99.90;;;;;;5045204;28;20043;-74
2023/10/16 05:19:17;;;;;;;7.93;3.15;;;8.60;99.90;;;;;;5050366;28;20040;-74
2023/10/16 06:16:17;;;;;;;8.57;3.20;;;9.10;99.90;;;;;;5049825;28;20028;-74
2023/10/16 06:18:47;;;;;;;9.00;2.90;;;9.20;99.90;;;;;;5049949;28;20029;-74
2023/10/16 06:21:15;;;;;;;8.15;3.10;;;9.20;99.90;;;;;;5049749;28;20508;-75
2023/10/16 06:23:43;;;;;;;8.77;3.17;;;9.20;99.90;;;;;;5049272;28;20032;-74
2023/10/16 06:26:09;;;;;;;10.48;2.90;;;9.20;99.90;;;;;;5049734;28;20079;-75
2023/10/16 06:28:35;;;;;;;6.03;2.58;;;9.20;99.90;;;;;;5043846;28;20056;-74
2023/10/16 06:31:01;;;;;;;5.22;2.90;;;9.20;99.90;;;;;;5049394;28;20413;-75
2023/10/16 06:33:28;;;;;;;7.15;2.95;;;9.20;99.90;;;;;;5049691;28;20051;-75
2023/10/16 06:35:54;;;;;;;7.50;3.17;;;9.30;99.90;;;;;;5049518;28;20029;-74
2023/10/16 06:38:21;;;;;;;11.13;3.33;;;9.20;99.90;;;;;;5040777;28;20018;-75
2023/10/16 06:40:47;;;;;;;9.02;3.03;;;9.30;99.90;;;;;;5043909;28;20025;-75
2023/10/16 06:43:14;;;;;;;7.78;3.22;;;9.30;99.90;;;;;;5043349;28;20025;-75
2023/10/16 06:45:55;;;;;;;7.82;3.40;;;9.30;99.90;;;;;;5049561;28;20070;-75
2023/10/16 06:48:21;;;;;;;7.82;3.60;;;9.30;99.90;;;;;;5044972;28;20025;-74
2023/10/16 06:51:08;;;;;;;8.38;3.47;;;9.40;99.90;;;;;;5034845;28;20052;-75
2023/10/16 06:53:34;;;;;;;8.15;3.28;;;9.40;99.90;;;;;;5034717;28;20030;-74
2023/10/16 06:56:00;;;;;;;8.73;3.92;;;9.40;99.90;;;;;;5049312;28;20545;-75
2023/10/16 06:58:26;;;;;;;11.30;3.63;;;9.50;99.90;;;;;;5049234;28;20029;-74
2023/10/16 07:00:52;;;;;;;7.75;3.10;;;9.50;99.90;;;;;;5042601;28;20025;-75
2023/10/16 07:03:18;;;;;;;9.27;3.40;;;9.50;99.90;;;;;;5049572;28;20159;-75
2023/10/16 07:05:43;;;;;;;6.93;3.50;;;9.50;99.90;;;;;;5053039;28;20104;-75
2023/10/16 07:08:18;;;;;;;8.95;3.40;;;9.60;99.90;;;;;;5052819;28;20067;-74
2023/10/16 07:10:51;;;;;;;8.10;3.45;;;9.60;99.90;;;;;;5053144;28;20029;-74
2023/10/16 07:13:28;;;;;;;11.32;3.50;;;9.60;99.90;;;;;;5053164;28;20063;-74
2023/10/16 07:16:04;;;;;;;8.35;3.20;;;9.70;99.90;;;;;;5052576;28;20040;-74
2023/10/16 07:18:33;;;;;;;7.85;3.30;;;9.70;99.90;;;;;;5041252;28;20031;-74
2023/10/16 07:20:59;;;;;;;9.18;3.75;;;9.80;99.90;;;;;;5041830;28;20040;-74
2023/10/16 07:23:29;;;;;;;7.43;3.67;;;9.80;99.90;;;;;;5052280;28;20021;-74
2023/10/16 07:25:57;;;;;;;8.40;3.80;;;9.80;99.90;;;;;;5052662;28;20020;-74
2023/10/16 07:28:26;;;;;;;10.85;4.13;;;9.90;99.90;;;;;;5047686;28;20033;-74
2023/10/16 07:30:52;;;;;;;10.60;4.10;;;9.90;99.90;;;;;;5050821;28;20043;-74
2023/10/16 07:33:20;;;;;;;13.57;3.95;;;10.00;99.90;;;;;;5052623;28;20033;-74
2023/10/16 07:35:48;;;;;;;10.00;3.78;;;10.00;99.90;;;;;;5052205;28;20021;-75
2023/10/16 07:38:20;;;;;;;7.53;3.55;;;10.10;99.90;;;;;;5052592;28;20044;-74
2023/10/16 07:40:56;;;;;;;7.25;3.58;;;10.10;99.90;;;;;;5047567;28;20033;-74
2023/10/16 07:43:32;;;;;;;13.45;3.78;;;10.10;99.90;;;;;;5052489;28;20425;-75
2023/10/16 07:48:52;;;;;;;10.80;3.50;;;10.20;99.90;;;;;;5051728;28;20037;-74
2023/10/16 07:51:25;;;;;;;9.60;3.58;;;10.30;99.90;;;;;;5051169;28;20045;-74
2023/10/16 07:53:51;;;;;;;14.27;3.45;;;10.30;99.90;;;;;;5052127;28;20559;-74
2023/10/16 07:58:54;;;;;;;15.18;3.95;;;10.40;99.90;;;;;;5051915;28;20135;-74
2023/10/16 08:01:36;;;;;;;8.82;3.50;;;10.50;99.90;;;;;;5050715;28;20037;-74
2023/10/16 08:04:18;;;;;;;13.00;4.63;;;10.60;99.90;;;;;;5051198;28;20477;-75
2023/10/16 08:06:45;;;;;;;11.88;4.40;;;10.60;99.90;;;;;;5051963;28;20428;-75
2023/10/16 08:11:57;;;;;;;8.65;4.25;;;10.70;99.90;;;;;;5051220;28;20406;-74
2023/10/16 08:14:23;;;;;;;10.38;3.78;;;10.70;99.90;;;;;;5051399;28;20016;-74
2023/10/16 08:16:58;;;;;;;10.25;4.53;;;10.80;99.90;;;;;;5047331;28;20083;-74
2023/10/16 08:19:31;;;;;;;12.93;4.57;;;10.80;99.90;;;;;;5050661;28;20044;-74
2023/10/16 08:22:02;;;;;;;10.80;4.25;;;10.90;99.90;;;;;;5051446;28;20036;-75
2023/10/16 08:24:28;;;;;;;11.48;4.20;;;11.00;99.90;;;;;;5047831;28;20037;-74
2023/10/16 08:27:07;;;;;;;7.35;4.10;;;11.00;99.90;;;;;;5051174;28;20378;-74
2023/10/16 08:29:34;;;;;;;12.32;4.45;;;11.10;99.90;;;;;;5047671;28;20547;-74
2023/10/16 08:34:44;;;;;;;11.23;4.15;;;11.20;99.90;;;;;;5044215;28;20035;-74
2023/10/16 08:37:11;;;;;;;7.63;3.88;;;11.20;99.90;;;;;;5049504;28;20477;-74
2023/10/16 08:39:37;;;;;;;10.45;4.28;;;11.20;99.90;;;;;;5050324;28;20033;-74
2023/10/16 08:42:18;;;;;;;15.48;4.78;;;11.20;99.90;;;;;;5050905;28;20109;-74
2023/10/16 08:44:51;;;;;;;13.43;4.63;;;11.30;99.90;;;;;;5046656;28;20428;-74
2023/10/16 08:47:24;;;;;;;15.38;4.78;;;11.40;99.90;;;;;;5048362;28;20021;-74
2023/10/16 08:49:54;;;;;;;10.45;4.40;;;11.40;99.90;;;;;;5050516;28;20436;-74
2023/10/16 08:52:22;;;;;;;12.80;4.28;;;11.50;99.90;;;;;;5047628;28;20107;-74
2023/10/16 08:57:16;;;;;;;9.57;3.92;;;11.60;99.90;;;;;;5051290;28;20025;-73
2023/10/16 08:59:43;;;;;;;8.20;3.90;;;11.60;99.90;;;;;;5045703;28;20434;-74
2023/10/16 09:02:13;;;;;;;12.48;4.00;;;11.70;99.90;;;;;;5043614;28;20040;-74
2023/10/16 09:04:42;;;;;;;11.63;3.60;;;11.70;99.90;;;;;;5049931;28;20359;-74
2023/10/16 09:07:11;;;;;;;13.07;4.25;;;11.80;99.90;;;;;;5050613;28;20218;-74
2023/10/16 09:09:41;;;;;;;11.43;3.85;;;11.90;99.90;;;;;;5050788;28;20330;-73
2023/10/16 09:12:10;;;;;;;11.23;3.10;;;11.90;99.90;;;;;;5046483;28;20009;-73
2023/10/16 09:14:39;;;;;;;13.43;3.20;;;11.90;99.90;;;;;;5052093;28;20458;-73
2023/10/16 09:17:08;;;;;;;10.48;3.30;;;12.00;99.90;;;;;;5051990;28;20025;-74
2023/10/16 09:19:34;;;;;;;9.43;2.67;;;12.00;99.90;;;;;;5051081;28;20064;-74
2023/10/16 09:22:04;;;;;;;9.35;2.72;;;12.10;99.90;;;;;;5049817;28;20065;-74
2023/10/16 09:24:33;;;;;;;5.72;1.95;;;12.10;99.90;;;;;;5050462;28;20033;-74
2023/10/16 09:27:30;;;;;;;5.40;1.88;;;12.20;99.90;;;;;;5044898;28;20017;-74
2023/10/16 09:29:54;;;;;;;10.77;1.60;;;12.20;99.90;;;;;;5048221;28;20033;-74
2023/10/16 09:32:27;;;;;;;3.67;1.52;;;12.20;99.90;;;;;;5047220;28;20059;-75
2023/10/16 09:34:53;;;;;;;7.50;1.42;;;12.30;99.90;;;;;;5049628;28;20092;-74
2023/10/16 09:37:34;;;;;;;3.35;1.20;;;12.40;99.90;;;;;;5049887;28;20097;-75
2023/10/16 09:40:19;;;;;;;5.13;1.20;;;12.50;99.90;;;;;;5050383;28;20035;-73
2023/10/16 09:42:55;;;;;;;5.13;1.20;;;12.60;99.90;;;;;;5046768;28;20098;-74
2023/10/16 09:45:24;;;;;;;4.95;1.27;;;12.70;99.90;;;;;;5050849;28;20052;-74
2023/10/16 09:47:56;;;;;;;4.55;1.13;;;12.70;99.90;;;;;;5051172;28;20027;-74
2023/10/16 09:50:24;;;;;;;3.42;1.10;;;12.80;99.90;;;;;;5049564;28;20063;-74
2023/10/16 09:52:49;;;;;;;5.40;1.30;;;12.90;99.90;;;;;;5046627;28;20405;-75
2023/10/16 09:55:18;;;;;;;3.55;1.15;;;12.90;99.90;;;;;;5049114;28;20043;-75
2023/10/16 09:57:52;;;;;;;3.83;1.00;;;12.90;99.90;;;;;;5047945;28;20021;-75
2023/10/16 10:00:28;;;;;;;3.92;1.20;;;13.00;99.90;;;;;;5049108;28;20512;-75
2023/10/16 10:03:05;;;;;;;4.60;1.08;;;13.00;99.90;;;;;;5049058;28;20059;-73
2023/10/16 10:05:48;;;;;;;3.72;1.00;;;13.10;99.90;;;;;;5049389;28;20108;-73
2023/10/16 10:08:17;;;;;;;2.33;1.00;;;13.20;99.90;;;;;;5047726;28;20017;-73
2023/10/16 10:11:15;;;;;;;3.55;0.90;;;13.30;99.90;;;;;;5043487;28;20041;-73
2023/10/16 10:13:55;;;;;;;3.65;1.00;;;13.30;99.90;;;;;;5047438;28;20025;-73
2023/10/16 10:16:23;;;;;;;4.95;1.17;;;13.40;99.90;;;;;;5049599;28;20017;-73
2023/10/16 10:19:01;;;;;;;6.65;1.20;;;13.50;99.90;;;;;;5047361;28;20025;-73
2023/10/16 10:21:30;;;;;;;3.72;1.08;;;13.50;99.90;;;;;;5047379;28;20056;-73
2023/10/16 10:24:03;;;;;;;4.88;1.15;;;13.70;99.90;;;;;;5046225;28;20025;-73
2023/10/16 10:26:32;;;;;;;4.15;0.80;;;13.80;99.90;;;;;;5045918;28;20013;-73
2023/10/16 10:29:12;;;;;;;4.22;0.82;;;13.90;99.90;;;;;;5044633;28;20152;-74
2023/10/16 10:31:41;;;;;;;4.20;0.75;;;14.00;99.90;;;;;;5049066;28;20044;-73
2023/10/16 10:34:22;;;;;;;3.70;0.77;;;14.10;99.90;;;;;;5048883;28;20056;-73
2023/10/16 10:36:49;;;;;;;4.30;0.80;;;14.20;99.90;;;;;;5047429;28;20437;-75
2023/10/16 10:39:21;;;;;;;3.10;0.80;;;14.40;99.90;;;;;;5047789;28;20470;-73
2023/10/16 10:42:03;;;;;;;2.42;1.08;;;14.60;99.90;;;;;;5053362;28;20033;-74
2023/10/16 10:44:32;;;;;;;1.83;0.80;;;14.70;99.90;;;;;;5052837;28;20017;-74
2023/10/16 10:47:02;;;;;;;3.50;0.90;;;14.80;99.90;;;;;;5053538;28;20373;-73
2023/10/16 10:49:33;;;;;;;2.40;0.70;;;14.80;99.90;;;;;;5047055;28;20033;-73
2023/10/16 10:52:04;;;;;;;3.70;0.70;;;14.80;99.90;;;;;;5046247;28;20045;-73
2023/10/16 10:54:30;;;;;;;1.95;0.80;;;14.90;99.90;;;;;;5049619;28;20033;-74
2023/10/16 10:57:00;;;;;;;3.80;0.90;;;14.90;99.90;;;;;;5043441;28;20022;-73
2023/10/16 10:59:41;;;;;;;3.42;0.90;;;14.90;99.90;;;;;;5052766;28;20116;-74
2023/10/16 11:04:44;;;;;;;4.63;0.77;;;15.10;99.90;;;;;;5052450;28;20025;-74
2023/10/16 11:10:02;;;;;;;2.92;0.70;;;15.20;99.90;;;;;;5036507;28;20037;-73
2023/10/16 11:12:30;;;;;;;3.60;1.00;;;15.30;99.90;;;;;;5051599;28;20025;-73
2023/10/16 11:14:56;;;;;;;9.20;1.50;;;15.30;99.90;;;;;;5052241;28;20020;-74
2023/10/16 11:17:37;;;;;;;3.25;0.70;;;15.30;99.90;;;;;;5048263;28;20052;-74
2023/10/16 11:22:43;;;;;;;;;;;15.50;99.90;;;;;;5052751;28;20086;-74
2023/10/16 11:25:13;;;;;;;2.55;0.73;;;15.50;99.90;;;;;;5046688;28;19917;-73
2023/10/16 11:27:42;;;;;;;5.03;1.00;;;15.50;99.90;;;;;;5052212;28;20029;-74
2023/10/16 11:30:18;;;;;;;2.30;0.68;;;15.60;99.90;;;;;;5051354;28;20095;-74
2023/10/16 11:32:46;;;;;;;2.58;0.63;;;15.50;99.90;;;;;;5051328;28;20045;-74
2023/10/16 11:35:17;;;;;;;6.57;0.95;;;15.50;99.90;;;;;;5052228;28;20085;-73
2023/10/16 11:37:50;;;;;;;3.45;0.80;;;15.50;99.90;;;;;;5051002;28;20049;-74
2023/10/16 11:40:19;;;;;;;1.95;0.73;;;15.50;99.90;;;;;;5047118;28;20039;-74
2023/10/16 11:42:48;;;;;;;4.13;1.00;;;15.60;99.90;;;;;;5051413;28;20032;-73
2023/10/16 11:45:19;;;;;;;4.32;0.88;;;15.60;99.90;;;;;;5048795;28;20412;-74
2023/10/16 11:48:03;;;;;;;5.75;0.80;;;15.60;99.90;;;;;;5052318;28;20025;-74
2023/10/16 11:50:41;;;;;;;3.53;0.88;;;15.60;99.90;;;;;;5051087;28;20056;-74
2023/10/16 11:53:09;;;;;;;5.00;1.05;;;15.60;99.90;;;;;;5049459;28;20037;-74
2023/10/16 11:55:38;;;;;;;3.05;0.95;;;15.70;99.90;;;;;;5050278;28;20029;-74
2023/10/16 11:58:07;;;;;;;3.95;0.80;;;15.70;99.90;;;;;;5051788;28;20485;-75
2023/10/16 12:00:35;;;;;;;3.22;0.95;;;15.70;99.90;;;;;;5052194;28;20302;-74
2023/10/16 12:03:07;;;;;;;2.92;1.10;;;15.70;99.90;;;;;;5046991;28;20059;-73
2023/10/16 12:05:34;;;;;;;5.35;1.10;;;15.70;99.90;;;;;;5046696;28;20040;-74
2023/10/16 12:08:02;;;;;;;5.30;1.30;;;15.70;99.90;;;;;;5048809;28;20022;-74
2023/10/16 12:10:31;;;;;;;4.68;1.05;;;15.70;99.90;;;;;;5050354;28;20512;-73
2023/10/16 12:12:57;;;;;;;3.88;0.90;;;15.80;99.90;;;;;;5049036;28;20024;-74
2023/10/16 12:15:25;;;;;;;6.07;0.90;;;15.80;99.90;;;;;;5049096;28;20469;-74
2023/10/16 12:17:53;;;;;;;2.70;0.90;;;15.90;99.90;;;;;;5048846;28;20035;-74
2023/10/16 12:20:21;;;;;;;3.53;1.00;;;15.90;99.90;;;;;;5044317;28;20040;-74
2023/10/16 12:22:48;;;;;;;3.13;0.80;;;15.90;99.90;;;;;;5051772;28;20123;-74
2023/10/16 12:25:13;;;;;;;3.38;0.85;;;15.90;99.90;;;;;;5050612;28;20020;-74
2023/10/16 12:27:39;;;;;;;6.43;1.20;;;15.90;99.90;;;;;;5050842;28;20444;-74
2023/10/16 12:30:07;;;;;;;4.10;0.88;;;15.90;99.90;;;;;;5051445;28;20032;-74
2023/10/16 12:32:33;;;;;;;3.92;1.08;;;15.90;99.90;;;;;;5051070;28;20025;-74
2023/10/16 12:35:00;;;;;;;4.30;1.02;;;15.90;99.90;;;;;;5051412;28;20039;-74
2023/10/16 12:37:27;;;;;;;4.22;1.00;;;15.90;99.90;;;;;;5051512;28;20021;-74
2023/10/16 12:39:54;;;;;;;4.50;0.85;;;15.90;99.90;;;;;;5051153;28;20065;-74
2023/10/16 12:42:20;;;;;;;5.70;1.10;;;15.90;99.90;;;;;;5051118;28;20482;-74
2023/10/16 12:44:46;;;;;;;6.35;0.93;;;15.90;99.90;;;;;;5051430;28;20032;-74
2023/10/16 12:47:13;;;;;;;3.33;1.25;;;15.80;99.90;;;;;;5048704;28;20029;-74
2023/10/16 12:49:39;;;;;;;2.08;1.02;;;15.80;99.90;;;;;;5044792;28;20520;-74
2023/10/16 12:52:05;;;;;;;4.72;1.10;;;15.80;99.90;;;;;;5048705;28;20045;-74
2023/10/16 12:54:31;;;;;;;3.47;0.88;;;15.80;99.90;;;;;;5044976;28;20025;-74
2023/10/16 12:56:57;;;;;;;2.53;1.00;;;15.80;99.90;;;;;;5049985;28;20021;-75
2023/10/16 12:59:26;;;;;;;5.28;1.00;;;15.70;99.90;;;;;;5041011;28;20021;-74
2023/10/16 13:01:52;;;;;;;3.55;0.95;;;15.60;99.90;;;;;;5047474;28;20052;-74
2023/10/16 13:04:18;;;;;;;4.45;0.93;;;15.60;99.90;;;;;;5050750;28;20450;-74
2023/10/16 13:06:44;;;;;;;3.85;0.75;;;15.60;99.90;;;;;;5050043;28;20377;-74
2023/10/16 13:09:15;;;;;;;2.80;0.95;;;15.60;99.90;;;;;;5050772;28;20032;-74
2023/10/16 13:11:41;;;;;;;4.05;0.93;;;15.50;99.90;;;;;;5048172;28;20017;-74
2023/10/16 13:14:07;;;;;;;4.03;1.00;;;15.50;99.90;;;;;;5048037;28;20092;-74
2023/10/16 13:16:33;;;;;;;5.35;0.98;;;15.50;99.90;;;;;;5048450;28;20032;-75
2023/10/16 13:19:00;;;;;;;8.60;1.10;;;15.50;99.90;;;;;;5049340;28;20033;-74
2023/10/16 13:21:37;;;;;;;3.55;0.90;;;15.40;99.90;;;;;;5044805;28;20041;-74
2023/10/16 13:24:12;;;;;;;7.07;1.08;;;15.30;99.90;;;;;;5048930;28;20048;-74
2023/10/16 13:26:38;;;;;;;3.67;0.90;;;15.30;99.90;;;;;;5049566;28;20058;-75
2023/10/16 13:29:07;;;;;;;3.20;0.90;;;15.30;99.90;;;;;;5050446;28;20050;-74
2023/10/16 13:31:35;;;;;;;7.15;1.13;;;15.30;99.90;;;;;;5042902;28;20151;-74
2023/10/16 13:34:02;;;;;;;2.90;1.00;;;15.30;99.90;;;;;;5037254;28;20385;-74
2023/10/16 13:36:29;;;;;;;6.50;1.02;;;15.30;99.90;;;;;;5049752;28;20032;-74
2023/10/16 13:38:55;;;;;;;2.17;0.80;;;15.30;99.90;;;;;;5050017;28;20028;-75
2023/10/16 13:41:21;;;;;;;1.88;0.90;;;15.20;99.90;;;;;;5049395;28;20402;-74
2023/10/16 13:43:47;;;;;;;5.65;1.00;;;15.20;99.90;;;;;;5049271;28;20025;-74
2023/10/16 13:46:14;;;;;;;4.18;0.80;;;15.10;99.90;;;;;;5050621;28;20063;-74
2023/10/16 13:48:45;;;;;;;5.75;1.52;;;15.10;99.90;;;;;;5048187;28;20115;-74
2023/10/16 13:51:13;;;;;;;3.95;1.10;;;15.10;99.90;;;;;;5047931;28;20053;-74
2023/10/16 13:53:39;;;;;;;2.95;1.17;;;15.00;99.90;;;;;;5044724;28;20417;-74
2023/10/16 13:56:05;;;;;;;4.20;0.82;;;15.00;99.90;;;;;;5051334;28;20035;-74
2023/10/16 13:58:31;;;;;;;5.75;1.10;;;15.00;99.90;;;;;;5050466;28;20036;-74
2023/10/16 14:00:57;;;;;;;4.90;0.85;;;15.00;99.90;;;;;;5047495;28;20279;-74
2023/10/16 14:03:24;;;;;;;2.63;0.90;;;14.90;99.90;;;;;;5049725;28;20069;-74
2023/10/16 14:05:54;;;;;;;3.85;1.20;;;14.90;99.90;;;;;;5049688;28;20017;-74
2023/10/16 14:08:30;;;;;;;5.78;1.00;;;14.90;99.90;;;;;;5049077;28;20123;-74
2023/10/16 14:11:00;;;;;;;4.68;1.05;;;14.80;99.90;;;;;;5048702;28;20029;-74
2023/10/16 14:13:27;;;;;;;5.88;1.30;;;14.80;99.90;;;;;;5047664;28;20025;-74
2023/10/16 14:15:57;;;;;;;3.42;0.95;;;14.80;99.90;;;;;;5047185;28;20021;-75
2023/10/16 14:18:26;;;;;;;3.55;0.80;;;14.70;99.90;;;;;;5047078;28;20116;-74
2023/10/16 14:20:53;;;;;;;5.45;1.17;;;14.70;99.90;;;;;;5047363;28;20029;-75
2023/10/16 14:23:19;;;;;;;3.42;0.80;;;14.70;99.90;;;;;;5038856;28;20060;-75
2023/10/16 14:25:49;;;;;;;2.80;0.80;;;14.60;99.90;;;;;;5038354;28;20026;-75
2023/10/16 14:28:33;;;;;;;7.63;1.17;;;14.60;99.90;;;;;;5047015;28;20061;-74
2023/10/16 14:31:04;;;;;;;5.25;0.93;;;14.60;99.90;;;;;;5040422;28;20028;-75
2023/10/16 14:33:31;;;;;;;3.88;1.00;;;14.60;99.90;;;;;;5041230;28;20009;-75
2023/10/16 14:35:58;;;;;;;5.68;1.20;;;14.50;99.90;;;;;;5049171;28;20013;-75
2023/10/16 14:38:28;;;;;;;2.90;1.13;;;14.50;99.90;;;;;;5048824;28;20036;-75
2023/10/16 14:41:04;;;;;;;5.35;1.10;;;14.50;99.90;;;;;;5049047;28;20025;-74
2023/10/16 14:43:30;;;;;;;4.95;1.05;;;14.40;99.90;;;;;;5049669;28;20049;-74
2023/10/16 14:45:57;;;;;;;4.57;1.02;;;14.30;99.90;;;;;;5049457;28;20029;-75
2023/10/16 14:48:23;;;;;;;5.00;0.80;;;14.30;99.90;;;;;;5048905;28;20021;-75
2023/10/16 14:50:50;;;;;;;7.10;1.13;;;14.30;99.90;;;;;;5048582;28;20013;-75
2023/10/16 14:53:19;;;;;;;5.93;1.20;;;14.30;99.90;;;;;;5049124;28;20021;-75
2023/10/16 14:55:48;;;;;;;6.07;1.30;;;14.30;99.90;;;;;;5048885;28;20120;-75
2023/10/16 14:58:14;;;;;;;5.07;1.20;;;14.30;99.90;;;;;;5041219;28;20084;-75